Time;durP1;ratioP1;P1;durP2;ratioP2;P2;SDS_P1;SDS_P2;PMS_P1;PMS_P2;Temp;Humidity;BMP_temperature;BMP_pressure;BME280_temperature;BME280_humidity;BME280_pressure;Samples;Min_cycle;Max_cycle;Signal;HPM_P1;HPM_P2
2021/04/09 05:01:22;;;;;;;;;;;;;;;-0.80;80.92;98735.27;1679990;83;20418;-67
2021/04/09 05:03:52;;;;;;;;;;;;;;;-0.76;82.01;98740.45;1666237;83;20621;-67
2021/04/09 05:06:20;;;;;;;;;;;;;;;-0.69;81.48;98743.25;1650637;83;21906;-65
2021/04/09 05:08:48;;;;;;;;;;;;;;;-0.56;82.09;98742.38;1658114;83;20498;-64
2021/04/09 05:11:16;;;;;;;;;;;;;;;-0.45;81.90;98742.16;1664354;83;20552;-65
2021/04/09 05:13:46;;;;;;;;;;;;;;;-0.32;82.08;98743.05;1663258;83;20604;-66
2021/04/09 05:16:14;;;;;;;;;;;;;;;-0.24;81.81;98742.63;1669316;83;20568;-67
2021/04/09 05:18:49;;;;;;;;;;;;;;;-0.20;81.42;98747.80;1661252;83;21299;-64
2021/04/09 05:21:18;;;;;;;;;;;;;;;-0.18;81.22;98748.47;1655935;84;20608;-65
2021/04/09 05:23:47;;;;;;;;;;;;;;;-0.16;81.06;98751.72;1672451;83;20686;-66
2021/04/09 05:26:15;;;;;;;;;;;;;;;-0.08;80.73;98756.13;1665586;83;20638;-66
2021/04/09 05:28:43;;;;;;;;;;;;;;;0.00;80.63;98754.88;1667661;83;20862;-65
2021/04/09 05:31:11;;;;;;;;;;;;;;;0.08;80.31;98763.13;1673000;83;21932;-64
2021/04/09 05:36:08;;;;;;;;;;;;;;;0.25;79.15;98772.13;1640169;85;20516;-66
2021/04/09 05:38:39;;;;;;;;;;;;;;;0.29;79.06;98763.56;1642520;84;20513;-62
2021/04/09 05:41:07;;;;;;;;;;;;;;;0.31;78.94;98767.63;1618490;85;20560;-63
2021/04/09 05:43:35;;;;;;;;;;;;;;;0.34;79.05;98764.75;1622216;85;22853;-67
2021/04/09 05:46:04;;;;;;;;;;;;;;;0.38;79.10;98760.06;1655849;84;20593;-66
2021/04/09 05:48:35;;;;;;;;;;;;;;;0.45;79.15;98762.34;1640414;84;20495;-65
2021/04/09 05:51:03;;;;;;;;;;;;;;;0.55;79.14;98763.05;1617960;86;21073;-67
2021/04/09 05:53:31;;;;;;;;;;;;;;;0.69;79.70;98767.63;1618972;87;20766;-67
2021/04/09 05:55:59;;;;;;;;;;;;;;;0.86;79.63;98763.80;1620326;87;21923;-70
2021/04/09 05:58:37;;;;;;;;;;;;;;;1.03;78.25;98766.23;1630710;85;20483;-72
2021/04/09 06:01:05;;;;;;;;;;;;;;;1.18;77.54;98766.42;1617179;85;20227;-67
2021/04/09 06:03:37;;;;;;;;;;;;;;;1.29;76.92;98767.42;1636692;85;21011;-64
2021/04/09 06:06:06;;;;;;;;;;;;;;;1.40;76.50;98768.88;1646503;84;20739;-64
2021/04/09 06:08:46;;;;;;;;;;;;;;;1.50;75.73;98759.98;1636710;85;21681;-64
2021/04/09 06:11:32;;;;;;;;;;;;;;;1.63;75.07;98770.33;1643415;84;20612;-64
2021/04/09 06:14:00;;;;;;;;;;;;;;;1.80;74.91;98771.95;1646704;84;20594;-63
2021/04/09 06:16:28;;;;;;;;;;;;;;;1.94;74.10;98769.50;1639835;85;20458;-62
2021/04/09 06:19:01;;;;;;;;;;;;;;;2.08;74.00;98773.68;1652153;84;20486;-64
2021/04/09 06:21:46;;;;;;;;;;;;;;;2.21;73.38;98768.30;1649660;84;21955;-63
2021/04/09 06:24:35;;;;;;;;;;;;;;;2.36;71.83;98767.12;1643828;85;20526;-62
2021/04/09 06:27:07;;;;;;;;;;;;;;;2.52;70.98;98768.33;1646337;84;20479;-65
2021/04/09 06:29:37;;;;;;;;;;;;;;;2.68;69.46;98772.16;1611932;86;20539;-63
2021/04/09 06:32:15;;;;;;;;;;;;;;;2.84;68.43;98778.25;1624175;86;20780;-65
2021/04/09 06:34:43;;;;;;;;;;;;;;;2.97;67.69;98775.91;1619156;85;21919;-63
2021/04/09 06:37:13;;;;;;;;;;;;;;;3.05;66.03;98768.07;1620873;85;20633;-65
2021/04/09 06:39:44;;;;;;;;;;;;;;;3.20;63.28;98766.84;1658137;83;20398;-62
2021/04/09 06:42:14;;;;;;;;;;;;;;;3.32;62.32;98771.94;1676614;83;21111;-61
2021/04/09 06:44:43;;;;;;;;;;;;;;;3.40;61.96;98767.99;1652030;84;20608;-64
2021/04/09 06:47:11;;;;;;;;;;;;;;;3.46;61.44;98773.30;1643631;84;21804;-64
2021/04/09 06:49:40;;;;;;;;;;;;;;;3.54;61.38;98773.73;1659315;84;20464;-67
2021/04/09 06:52:15;;;;;;;;;;;;;;;3.62;61.36;98768.95;1655538;84;20509;-63
2021/04/09 06:54:45;;;;;;;;;;;;;;;3.69;61.47;98769.88;1658164;83;20664;-68
2021/04/09 06:57:13;;;;;;;;;;;;;;;3.75;60.91;98770.46;1665397;84;20615;-66
2021/04/09 06:59:44;;;;;;;;;;;;;;;3.83;60.52;98771.20;1657101;83;22052;-71
2021/04/09 07:02:16;;;;;;;;;;;;;;;3.91;60.55;98762.52;1657885;83;20507;-70
2021/04/09 07:04:45;;;;;;;;;;;;;;;3.99;60.33;98773.34;1649987;83;21142;-68
2021/04/09 07:07:17;;;;;;;;;;;;;;;4.07;60.02;98768.88;1659226;84;20539;-60
2021/04/09 07:09:53;;;;;;;;;;;;;;;4.14;60.04;98771.07;1665420;84;21017;-61
2021/04/09 07:12:31;;;;;;;;;;;;;;;4.23;59.39;98770.50;1650843;84;20383;-63
2021/04/09 07:14:59;;;;;;;;;;;;;;;4.31;59.05;98772.52;1604365;86;20614;-63
2021/04/09 07:17:32;;;;;;;;;;;;;;;4.36;58.30;98765.95;1600290;86;20600;-64
2021/04/09 07:20:15;;;;;;;;;;;;;;;4.40;58.71;98765.41;1605833;86;20400;-59
2021/04/09 07:22:45;;;;;;;;;;;;;;;4.48;58.24;98766.63;1637400;85;20740;-64
2021/04/09 07:25:28;;;;;;;;;;;;;;;4.57;57.19;98762.94;1623643;85;21902;-63
2021/04/09 07:28:18;;;;;;;;;;;;;;;4.64;56.72;98768.23;1603568;86;20606;-68
2021/04/09 07:30:50;;;;;;;;;;;;;;;4.69;55.53;98764.57;1603848;86;20516;-64
2021/04/09 07:33:21;;;;;;;;;;;;;;;4.73;55.44;98765.84;1617946;87;20702;-67
2021/04/09 07:35:56;;;;;;;;;;;;;;;4.78;55.67;98766.09;1627997;85;20392;-68
2021/04/09 07:38:26;;;;;;;;;;;;;;;4.84;55.05;98771.86;1636844;85;22104;-68
2021/04/09 07:41:08;;;;;;;;;;;;;;;4.90;54.66;98776.86;1601605;87;20495;-63
2021/04/09 07:44:00;;;;;;;;;;;;;;;4.96;54.82;98768.31;1637211;84;20791;-63
2021/04/09 07:46:27;;;;;;;;;;;;;;;5.08;55.48;98766.83;1637503;85;20403;-62
2021/04/09 07:49:09;;;;;;;;;;;;;;;5.22;55.35;98769.06;1652960;85;20577;-63
2021/04/09 07:51:38;;;;;;;;;;;;;;;5.32;54.87;98763.88;1649975;84;21706;-66
2021/04/09 07:54:10;;;;;;;;;;;;;;;5.43;55.72;98755.55;1651873;84;20657;-64
2021/04/09 07:56:43;;;;;;;;;;;;;;;5.56;53.67;98759.25;1643028;84;20511;-63
2021/04/09 07:59:11;;;;;;;;;;;;;;;5.64;52.73;98753.41;1639796;85;20729;-64
2021/04/09 08:01:48;;;;;;;;;;;;;;;5.69;51.98;98751.03;1647340;85;20807;-68
2021/04/09 08:04:20;;;;;;;;;;;;;;;5.74;51.92;98747.38;1640059;85;22040;-65
2021/04/09 08:07:31;;;;;;;;;;;;;;;5.81;52.56;98748.73;1681656;83;20422;-64
2021/04/09 08:09:59;;;;;;;;;;;;;;;5.91;53.17;98760.18;1641965;84;20407;-63
2021/04/09 08:12:33;;;;;;;;;;;;;;;5.97;52.78;98755.00;1653294;84;20395;-63
2021/04/09 08:15:20;;;;;;;;;;;;;;;6.06;52.08;98755.64;1612675;86;21145;-64
2021/04/09 08:18:00;;;;;;;;;;;;;;;6.10;51.18;98749.87;1659246;83;21873;-65
2021/04/09 08:20:38;;;;;;;;;;;;;;;6.17;51.07;98749.41;1660005;84;20592;-62
2021/04/09 08:23:12;;;;;;;;;;;;;;;6.24;50.93;98741.12;1655848;83;20601;-63
2021/04/09 08:25:48;;;;;;;;;;;;;;;6.32;50.52;98742.77;1642065;83;20482;-67
2021/04/09 08:28:23;;;;;;;;;;;;;;;6.38;49.85;98741.98;1664860;83;20542;-66
2021/04/09 08:30:53;;;;;;;;;;;;;;;6.43;50.11;98743.52;1665144;84;21992;-69
2021/04/09 08:33:21;;;;;;;;;;;;;;;6.47;50.27;98733.50;1661651;84;20569;-68
2021/04/09 08:35:49;;;;;;;;;;;;;;;6.50;49.97;98733.09;1649530;85;20498;-65
2021/04/09 08:38:18;;;;;;;;;;;;;;;6.54;48.71;98729.92;1662478;83;20526;-66
2021/04/09 08:40:47;;;;;;;;;;;;;;;6.56;47.69;98731.00;1654514;83;20663;-68
2021/04/09 08:48:27;;;;;;;;;;;;;;;6.67;47.87;98721.32;1635968;85;20533;-70
2021/04/09 08:50:57;;;;;;;;;;;;;;;6.75;48.97;98718.53;1616514;85;20497;-70
2021/04/09 08:53:30;;;;;;;;;;;;;;;6.83;47.78;98719.67;1629239;85;20656;-64
2021/04/09 08:55:59;;;;;;;;;;;;;;;6.89;47.80;98720.69;1647725;85;21011;-65
2021/04/09 08:58:33;;;;;;;;;;;;;;;6.93;47.00;98715.36;1675305;83;20506;-66
2021/04/09 09:01:01;;;;;;;;;;;;;;;6.96;47.25;98711.05;1669178;83;20673;-68
2021/04/09 09:03:30;;;;;;;;;;;;;;;7.02;47.91;98706.34;1666936;83;20766;-65
2021/04/09 09:06:03;;;;;;;;;;;;;;;7.10;47.46;98706.65;1653846;84;20693;-65
2021/04/09 09:08:52;;;;;;;;;;;;;;;7.19;47.84;98704.97;1629584;85;22210;-65
2021/04/09 09:11:52;;;;;;;;;;;;;;;7.29;47.00;98702.74;1642891;84;20461;-72
2021/04/09 09:14:36;;;;;;;;;;;;;;;7.38;45.60;98695.02;1628513;85;20668;-71
2021/04/09 09:17:21;;;;;;;;;;;;;;;7.38;45.16;98691.59;1635521;85;20762;-67
2021/04/09 09:19:50;;;;;;;;;;;;;;;7.37;45.83;98694.70;1637663;83;20792;-66
2021/04/09 09:22:21;;;;;;;;;;;;;;;7.41;45.82;98695.13;1600731;87;20816;-68
2021/04/09 09:25:03;;;;;;;;;;;;;;;7.50;46.11;98700.94;1643129;85;20226;-72
2021/04/09 09:27:50;;;;;;;;;;;;;;;7.58;44.31;98693.70;1636789;84;20725;-67
2021/04/09 09:30:39;;;;;;;;;;;;;;;7.69;44.24;98685.75;1638911;84;20626;-68
2021/04/09 09:33:32;;;;;;;;;;;;;;;7.78;43.99;98684.54;1658624;83;20630;-68
2021/04/09 09:36:33;;;;;;;;;;;;;;;7.89;44.03;98686.52;1656549;85;21893;-69
2021/04/09 09:39:24;;;;;;;;;;;;;;;8.00;44.30;98687.69;1680209;81;20845;-70
2021/04/09 09:44:51;;;;;;;;;;;;;;;8.23;44.14;98685.42;1655275;81;20682;-68
2021/04/09 09:47:33;;;;;;;;;;;;;;;8.31;43.87;98677.87;1662673;83;20516;-64
2021/04/09 09:53:05;;;;;;;;;;;;;;;8.40;42.82;98672.20;1680449;82;20493;-65
2021/04/09 09:56:07;;;;;;;;;;;;;;;8.41;41.16;98665.15;1664159;82;20238;-66
2021/04/09 09:58:35;;;;;;;;;;;;;;;8.43;42.13;98669.69;1675611;83;20360;-66
2021/04/09 10:01:06;;;;;;;;;;;;;;;8.45;42.25;98664.52;1678801;82;21059;-62
2021/04/09 10:03:55;;;;;;;;;;;;;;;8.48;42.83;98664.11;1655325;82;21013;-65
2021/04/09 10:06:26;;;;;;;;;;;;;;;8.56;42.48;98659.95;1663380;82;20246;-66
2021/04/09 10:08:56;;;;;;;;;;;;;;;8.67;42.48;98658.46;1663882;83;20523;-61
2021/04/09 10:11:24;;;;;;;;;;;;;;;8.77;41.31;98655.39;1671383;83;21412;-65
2021/04/09 10:13:52;;;;;;;;;;;;;;;8.79;41.35;98644.98;1693739;81;20613;-64
2021/04/09 10:16:30;;;;;;;;;;;;;;;8.85;41.43;98634.17;1650326;84;21875;-63
2021/04/09 10:18:58;;;;;;;;;;;;;;;8.88;41.23;98631.92;1660533;81;20478;-64
2021/04/09 10:21:33;;;;;;;;;;;;;;;8.91;42.15;98634.13;1667414;82;20583;-61
2021/04/09 10:24:19;;;;;;;;;;;;;;;8.86;41.26;98632.62;1665943;83;20586;-64
2021/04/09 10:26:55;;;;;;;;;;;;;;;8.74;41.67;98625.66;1709002;81;20576;-62
2021/04/09 10:29:29;;;;;;;;;;;;;;;8.63;41.84;98629.77;1717988;80;21897;-64
2021/04/09 10:31:57;;;;;;;;;;;;;;;8.59;42.48;98623.33;1712484;82;20509;-66
2021/04/09 10:34:30;;;;;;;;;;;;;;;8.60;42.90;98615.27;1719818;81;33067;-65
2021/04/09 10:37:00;;;;;;;;;;;;;;;8.64;42.71;98618.78;1725695;80;20678;-66
2021/04/09 10:39:28;;;;;;;;;;;;;;;8.68;42.09;98611.59;1711366;81;20406;-66
2021/04/09 10:41:57;;;;;;;;;;;;;;;8.81;43.05;98606.77;1711936;81;21834;-65
2021/04/09 10:44:31;;;;;;;;;;;;;;;8.93;41.26;98611.64;1690616;82;20502;-62
2021/04/09 10:47:03;;;;;;;;;;;;;;;8.94;41.17;98596.18;1680459;83;20465;-66
2021/04/09 10:49:33;;;;;;;;;;;;;;;8.94;41.73;98604.84;1672269;82;20980;-62
2021/04/09 10:52:12;;;;;;;;;;;;;;;9.04;42.02;98607.00;1672552;83;20846;-64
2021/04/09 10:54:43;;;;;;;;;;;;;;;9.14;41.79;98606.53;1717195;82;20670;-63
2021/04/09 10:57:14;;;;;;;;;;;;;;;9.21;41.91;98610.71;1672761;83;20484;-62
2021/04/09 10:59:44;;;;;;;;;;;;;;;9.28;40.52;98604.09;1672978;82;20436;-67
2021/04/09 11:02:21;;;;;;;;;;;;;;;9.31;39.56;98604.95;1662306;83;20707;-61
2021/04/09 11:04:55;;;;;;;;;;;;;;;9.32;39.14;98606.06;1681915;83;20511;-65
2021/04/09 11:07:46;;;;;;;;;;;;;;;9.33;38.73;98604.24;1677384;82;20752;-62
2021/04/09 11:10:30;;;;;;;;;;;;;;;9.32;39.03;98597.39;1679485;81;20508;-65
2021/04/09 11:12:58;;;;;;;;;;;;;;;9.38;39.58;98593.39;1671507;83;20567;-65
2021/04/09 11:15:39;;;;;;;;;;;;;;;9.45;39.68;98588.08;1727776;80;20510;-63
2021/04/09 11:18:07;;;;;;;;;;;;;;;9.47;38.81;98583.42;1708712;81;20774;-62
2021/04/09 11:20:37;;;;;;;;;;;;;;;9.49;39.22;98580.08;1670301;83;20918;-71
2021/04/09 11:23:10;;;;;;;;;;;;;;;9.61;40.22;98578.33;1647961;83;20382;-70
2021/04/09 11:25:46;;;;;;;;;;;;;;;9.78;40.09;98566.25;1664475;83;20472;-70
2021/04/09 11:28:28;;;;;;;;;;;;;;;9.95;40.05;98561.69;1714690;81;20661;-70
2021/04/09 11:31:02;;;;;;;;;;;;;;;10.15;38.59;98568.33;1708721;81;20308;-70
2021/04/09 11:33:40;;;;;;;;;;;;;;;10.26;37.97;98562.84;1716503;81;21856;-71
2021/04/09 11:36:18;;;;;;;;;;;;;;;10.29;37.70;98553.73;1725073;81;20206;-69
2021/04/09 11:38:50;;;;;;;;;;;;;;;10.21;36.66;98552.21;1743193;79;20603;-68
2021/04/09 11:41:30;;;;;;;;;;;;;;;10.15;37.17;98559.64;1720918;80;20553;-72
2021/04/09 11:44:00;;;;;;;;;;;;;;;10.20;37.82;98549.30;1726674;80;20538;-69
2021/04/09 11:46:35;;;;;;;;;;;;;;;10.38;37.16;98547.11;1716229;81;22057;-66
2021/04/09 11:49:07;;;;;;;;;;;;;;;10.58;37.57;98545.53;1653714;84;20474;-68
2021/04/09 11:51:39;;;;;;;;;;;;;;;10.79;37.58;98540.55;1673855;82;20214;-73
2021/04/09 11:54:13;;;;;;;;;;;;;;;11.01;37.80;98544.75;1710141;81;20597;-70
2021/04/09 11:56:43;;;;;;;;;;;;;;;11.16;36.46;98539.84;1714771;81;21133;-70
2021/04/09 11:59:13;;;;;;;;;;;;;;;11.15;34.78;98538.75;1716843;81;22134;-74
2021/04/09 12:01:46;;;;;;;;;;;;;;;11.07;34.98;98535.14;1709253;81;20634;-68
2021/04/09 12:04:40;;;;;;;;;;;;;;;10.99;35.22;98533.65;1677897;83;20606;-71
2021/04/09 12:07:15;;;;;;;;;;;;;;;10.94;35.30;98529.59;1678549;83;21041;-73
2021/04/09 12:09:46;;;;;;;;;;;;;;;10.90;35.58;98520.54;1685182;83;21031;-71
2021/04/09 12:12:14;;;;;;;;;;;;;;;10.99;35.90;98522.33;1703510;81;21796;-66
2021/04/09 12:14:47;;;;;;;;;;;;;;;11.08;35.15;98520.45;1661862;84;20654;-68
2021/04/09 12:17:18;;;;;;;;;;;;;;;11.15;36.11;98526.91;1676155;83;20494;-66
2021/04/09 12:19:46;;;;;;;;;;;;;;;11.19;34.99;98512.25;1685651;82;20745;-65
2021/04/09 12:22:15;;;;;;;;;;;;;;;11.23;35.30;98506.84;1684359;82;20592;-63
2021/04/09 12:24:42;;;;;;;;;;;;;;;11.26;34.99;98501.09;1676117;83;21957;-60
2021/04/09 12:27:10;;;;;;;;;;;;;;;11.27;34.65;98502.19;1684748;83;20588;-65
2021/04/09 12:29:38;;;;;;;;;;;;;;;11.27;33.20;98506.65;1688881;82;20606;-69
2021/04/09 12:32:06;;;;;;;;;;;;;;;11.25;33.47;98508.70;1648018;83;20671;-67
2021/04/09 12:34:46;;;;;;;;;;;;;;;11.26;33.41;98505.84;1653634;84;21071;-66
2021/04/09 12:37:53;;;;;;;;;;;;;;;11.27;34.13;98502.70;1715248;80;21957;-68
2021/04/09 12:40:34;;;;;;;;;;;;;;;11.33;35.24;98497.83;1706282;81;20228;-70
2021/04/09 12:43:06;;;;;;;;;;;;;;;11.45;34.16;98496.52;1692574;82;20611;-67
